Time;durP1;ratioP1;P1;durP2;ratioP2;P2;SDS_P1;SDS_P2;PMS_P1;PMS_P2;Temp;Humidity;BMP_temperature;BMP_pressure;BME280_temperature;BME280_humidity;BME280_pressure;Samples;Min_cycle;Max_cycle;Signal;HPM_P1;HPM_P2
2022/05/19 00:01:24;;;;;;;124.43;103.85;;;;;;;;;;4990264;28;20485;-80
2022/05/19 00:03:50;;;;;;;122.18;102.40;;;;;;;;;;4987675;28;20510;-80
2022/05/19 00:06:16;;;;;;;127.13;108.97;;;;;;;;;;4992340;28;20515;-80
2022/05/19 00:08:43;;;;;;;127.40;107.30;;;;;;;;;;4990442;28;20440;-80
2022/05/19 00:11:12;;;;;;;130.65;112.35;;;;;;;;;;4990899;28;20427;-80
2022/05/19 00:13:38;;;;;;;133.50;115.00;;;;;;;;;;5028302;23;20442;-87
2022/05/19 00:16:05;;;;;;;135.07;112.82;;;;;;;;;;5047792;28;20433;-85
2022/05/19 00:18:32;;;;;;;124.35;107.10;;;;;;;;;;5050037;28;20429;-87
2022/05/19 00:20:58;;;;;;;121.20;107.78;;;;;;;;;;5048598;28;20475;-87
2022/05/19 00:23:24;;;;;;;127.25;109.47;;;;;;;;;;5045965;28;20431;-87
2022/05/19 00:25:50;;;;;;;132.40;116.07;;;;;;;;;;5024159;28;20850;-87
2022/05/19 00:28:18;;;;;;;139.02;118.00;;;;;;;;;;5024539;28;20523;-87
2022/05/19 00:30:44;;;;;;;137.00;113.53;;;;;;;;;;5022689;28;20439;-87
2022/05/19 00:33:11;;;;;;;134.57;112.50;;;;;;;;;;5021603;28;20473;-87
2022/05/19 00:35:38;;;;;;;125.90;107.80;;;;;;;;;;5025565;28;20431;-88
2022/05/19 00:38:04;;;;;;;134.90;112.68;;;;;;;;;;5021032;28;20459;-85
2022/05/19 00:40:31;;;;;;;132.43;114.25;;;;;;;;;;5027633;28;20692;-85
2022/05/19 00:42:57;;;;;;;136.30;115.03;;;;;;;;;;5020262;28;20444;-84
2022/05/19 00:45:26;;;;;;;131.50;112.60;;;;;;;;;;5022070;28;20485;-87
2022/05/19 00:47:55;;;;;;;143.60;117.15;;;;;;;;;;5024811;28;20423;-87
2022/05/19 00:50:23;;;;;;;143.25;119.07;;;;;;;;;;5022639;28;20435;-87
2022/05/19 00:52:50;;;;;;;145.48;120.80;;;;;;;;;;5023700;28;20431;-87
2022/05/19 00:55:18;;;;;;;145.18;121.60;;;;;;;;;;5022364;28;20479;-87
2022/05/19 00:57:47;;;;;;;142.93;119.18;;;;;;;;;;5026309;28;20956;-85
2022/05/19 01:00:15;;;;;;;142.13;120.77;;;;;;;;;;5023558;28;20435;-85
2022/05/19 01:02:46;;;;;;;140.02;118.15;;;;;;;;;;5023635;28;20425;-85
2022/05/19 01:05:13;;;;;;;137.75;115.68;;;;;;;;;;5023761;28;20463;-85
2022/05/19 01:07:42;;;;;;;135.02;114.55;;;;;;;;;;5025387;28;20797;-86
2022/05/19 01:10:09;;;;;;;137.68;115.93;;;;;;;;;;5025015;28;20427;-85
2022/05/19 01:12:36;;;;;;;134.00;116.57;;;;;;;;;;5022836;28;20434;-84
2022/05/19 01:15:02;;;;;;;133.75;112.53;;;;;;;;;;5023988;28;20433;-85
2022/05/19 01:17:29;;;;;;;137.00;116.68;;;;;;;;;;5022492;28;20933;-85
2022/05/19 01:19:59;;;;;;;135.00;113.85;;;;;;;;;;5022877;28;20464;-84
2022/05/19 01:22:29;;;;;;;132.73;111.27;;;;;;;;;;5024261;28;20423;-85
2022/05/19 01:25:00;;;;;;;134.45;112.00;;;;;;;;;;5022697;28;20972;-85
2022/05/19 01:27:27;;;;;;;132.95;113.30;;;;;;;;;;5023654;28;20774;-85
2022/05/19 01:29:54;;;;;;;132.38;108.05;;;;;;;;;;5023543;28;20485;-85
2022/05/19 01:32:25;;;;;;;139.07;113.47;;;;;;;;;;5024214;28;20439;-86
2022/05/19 01:34:51;;;;;;;139.27;116.32;;;;;;;;;;5024888;28;20433;-85
2022/05/19 01:37:17;;;;;;;130.38;109.50;;;;;;;;;;5023275;28;20500;-85
2022/05/19 01:39:46;;;;;;;131.02;111.20;;;;;;;;;;5024460;28;20968;-87
2022/05/19 01:42:19;;;;;;;131.50;113.22;;;;;;;;;;5023054;28;20495;-85
2022/05/19 01:44:51;;;;;;;135.90;111.68;;;;;;;;;;5027401;28;20436;-86
2022/05/19 01:47:22;;;;;;;137.65;108.25;;;;;;;;;;5026321;28;20485;-85
2022/05/19 01:49:52;;;;;;;140.57;112.28;;;;;;;;;;5024614;28;20439;-85
2022/05/19 01:52:22;;;;;;;133.60;107.90;;;;;;;;;;5027492;28;20434;-85
2022/05/19 01:54:52;;;;;;;118.30;98.22;;;;;;;;;;5022133;28;20806;-86
2022/05/19 01:57:22;;;;;;;126.80;106.05;;;;;;;;;;5024172;28;20427;-86
2022/05/19 01:59:54;;;;;;;120.45;101.72;;;;;;;;;;5020291;28;21316;-85
2022/05/19 02:02:25;;;;;;;123.47;104.15;;;;;;;;;;5024902;28;20433;-87
2022/05/19 02:04:56;;;;;;;124.57;104.07;;;;;;;;;;5025663;28;20438;-85
2022/05/19 02:07:23;;;;;;;129.45;106.00;;;;;;;;;;5025485;28;21079;-85
2022/05/19 02:09:51;;;;;;;120.68;101.40;;;;;;;;;;5025575;28;20437;-87
2022/05/19 02:12:18;;;;;;;117.75;98.93;;;;;;;;;;5023759;28;20441;-85
2022/05/19 02:14:47;;;;;;;120.97;100.50;;;;;;;;;;5023520;28;20512;-87
2022/05/19 02:17:16;;;;;;;108.50;90.90;;;;;;;;;;5023948;28;20499;-85
2022/05/19 02:19:43;;;;;;;120.88;96.50;;;;;;;;;;5023146;28;20778;-85
2022/05/19 02:22:10;;;;;;;116.60;97.35;;;;;;;;;;5022694;28;20850;-85
2022/05/19 02:24:38;;;;;;;112.97;94.78;;;;;;;;;;5024228;28;20482;-85
2022/05/19 02:27:19;;;;;;;114.53;97.38;;;;;;;;;;5021205;28;20426;-84
2022/05/19 02:29:45;;;;;;;109.05;94.18;;;;;;;;;;5021434;28;20431;-85
2022/05/19 02:32:11;;;;;;;104.90;89.97;;;;;;;;;;5026003;28;20423;-84
2022/05/19 02:34:39;;;;;;;102.82;88.43;;;;;;;;;;5025585;28;20508;-85
2022/05/19 02:37:06;;;;;;;122.60;101.70;;;;;;;;;;5026387;28;20488;-85
2022/05/19 02:39:32;;;;;;;120.10;99.70;;;;;;;;;;5025603;28;20936;-85
2022/05/19 02:41:59;;;;;;;120.60;102.73;;;;;;;;;;5022989;28;20419;-85
2022/05/19 02:44:25;;;;;;;124.93;100.03;;;;;;;;;;5022088;28;20791;-85
2022/05/19 02:46:51;;;;;;;112.88;94.43;;;;;;;;;;5023306;28;20474;-85
2022/05/19 02:49:18;;;;;;;112.38;93.15;;;;;;;;;;5023783;28;20442;-85
2022/05/19 02:51:46;;;;;;;114.10;94.75;;;;;;;;;;5022326;28;20436;-84
2022/05/19 02:54:12;;;;;;;113.88;95.38;;;;;;;;;;5024017;28;20435;-85
2022/05/19 02:56:38;;;;;;;115.17;97.43;;;;;;;;;;5023076;28;20931;-85
2022/05/19 02:59:04;;;;;;;105.60;90.30;;;;;;;;;;5021441;28;20441;-84
2022/05/19 03:01:31;;;;;;;115.93;95.70;;;;;;;;;;5024492;28;20427;-85
2022/05/19 03:03:57;;;;;;;118.28;97.57;;;;;;;;;;5022419;28;20436;-86
2022/05/19 03:06:23;;;;;;;117.07;96.25;;;;;;;;;;5022280;28;20416;-86
2022/05/19 03:08:50;;;;;;;110.53;92.85;;;;;;;;;;5021974;28;20430;-85
2022/05/19 03:11:17;;;;;;;114.63;93.38;;;;;;;;;;5020028;28;20476;-85
2022/05/19 03:13:43;;;;;;;105.15;90.63;;;;;;;;;;5025183;28;20963;-85
2022/05/19 03:16:09;;;;;;;111.68;93.40;;;;;;;;;;5020141;28;20413;-85
2022/05/19 03:18:35;;;;;;;116.23;97.67;;;;;;;;;;5021628;28;20545;-84
2022/05/19 03:21:02;;;;;;;109.90;93.05;;;;;;;;;;5020631;28;20434;-85
2022/05/19 03:23:28;;;;;;;110.60;90.07;;;;;;;;;;5021354;28;20440;-84
2022/05/19 03:25:56;;;;;;;107.70;91.95;;;;;;;;;;5022574;28;20475;-85
2022/05/19 03:28:22;;;;;;;108.53;88.13;;;;;;;;;;5022320;28;20426;-85
2022/05/19 03:30:48;;;;;;;108.28;89.38;;;;;;;;;;5021637;28;20441;-84
2022/05/19 03:33:14;;;;;;;102.05;88.65;;;;;;;;;;5023037;28;20430;-85
2022/05/19 03:35:42;;;;;;;106.25;87.43;;;;;;;;;;5023252;28;20812;-85
2022/05/19 03:38:08;;;;;;;103.65;88.47;;;;;;;;;;5018877;28;20433;-85
2022/05/19 03:40:35;;;;;;;108.18;88.18;;;;;;;;;;5022693;28;20439;-85
2022/05/19 03:43:03;;;;;;;103.75;88.93;;;;;;;;;;5020701;28;20411;-85
2022/05/19 03:45:29;;;;;;;119.82;99.75;;;;;;;;;;5017393;28;20424;-85
2022/05/19 03:47:55;;;;;;;121.18;100.70;;;;;;;;;;5023621;28;20497;-86
2022/05/19 03:50:21;;;;;;;124.22;104.35;;;;;;;;;;5020098;28;21023;-85
2022/05/19 03:52:48;;;;;;;129.65;106.15;;;;;;;;;;5021915;28;20427;-85
2022/05/19 03:55:14;;;;;;;113.47;99.50;;;;;;;;;;5022482;28;20430;-84
2022/05/19 03:57:42;;;;;;;116.40;94.70;;;;;;;;;;5024247;28;20427;-86
2022/05/19 04:00:10;;;;;;;117.57;97.13;;;;;;;;;;5026112;28;20622;-85
2022/05/19 04:02:36;;;;;;;109.72;92.03;;;;;;;;;;5024559;28;20490;-86
2022/05/19 04:05:03;;;;;;;110.30;94.07;;;;;;;;;;5024225;28;21153;-85
2022/05/19 04:07:30;;;;;;;100.80;83.10;;;;;;;;;;5023647;28;20431;-85
2022/05/19 04:09:56;;;;;;;117.55;95.00;;;;;;;;;;5021108;28;20439;-87
2022/05/19 04:12:23;;;;;;;111.03;92.55;;;;;;;;;;5022585;28;20433;-87
2022/05/19 04:14:49;;;;;;;106.30;92.38;;;;;;;;;;5021799;28;20434;-85
2022/05/19 04:17:17;;;;;;;102.45;87.95;;;;;;;;;;5029578;28;20457;-85
2022/05/19 04:19:43;;;;;;;107.88;91.20;;;;;;;;;;5028189;28;20427;-87
2022/05/19 04:22:09;;;;;;;107.72;90.95;;;;;;;;;;5028963;28;20475;-85
2022/05/19 04:24:36;;;;;;;109.60;94.37;;;;;;;;;;5030783;28;20435;-86
2022/05/19 04:27:03;;;;;;;114.63;94.80;;;;;;;;;;5026486;28;20430;-85
2022/05/19 04:29:29;;;;;;;104.55;88.85;;;;;;;;;;5027031;28;20441;-85
2022/05/19 04:31:55;;;;;;;106.55;90.07;;;;;;;;;;5029684;28;20920;-85
2022/05/19 04:34:23;;;;;;;100.20;85.78;;;;;;;;;;5027618;28;20419;-85
2022/05/19 04:36:49;;;;;;;113.13;94.37;;;;;;;;;;5029387;28;20492;-86
2022/05/19 04:39:15;;;;;;;117.00;100.03;;;;;;;;;;5027563;28;20486;-87
2022/05/19 04:41:41;;;;;;;109.95;92.13;;;;;;;;;;5028472;28;20958;-86
2022/05/19 04:44:07;;;;;;;103.25;89.57;;;;;;;;;;5026379;28;20489;-87
2022/05/19 04:46:34;;;;;;;113.13;93.90;;;;;;;;;;5024174;28;20467;-87
2022/05/19 04:49:00;;;;;;;112.55;92.07;;;;;;;;;;5029754;28;20419;-85
2022/05/19 04:51:27;;;;;;;99.87;86.43;;;;;;;;;;5027845;28;20828;-85
2022/05/19 04:53:54;;;;;;;111.07;92.00;;;;;;;;;;5028935;28;20494;-86
2022/05/19 04:56:20;;;;;;;111.57;94.50;;;;;;;;;;5027590;28;20447;-87
2022/05/19 04:58:46;;;;;;;109.68;91.82;;;;;;;;;;5029255;28;20450;-86
2022/05/19 05:01:12;;;;;;;111.47;92.23;;;;;;;;;;5027344;28;20549;-86
2022/05/19 05:03:38;;;;;;;109.32;90.40;;;;;;;;;;5030817;28;20439;-87
2022/05/19 05:06:05;;;;;;;106.53;92.38;;;;;;;;;;5026967;28;22166;-86
2022/05/19 05:08:33;;;;;;;107.83;90.57;;;;;;;;;;5025436;28;20546;-85
2022/05/19 05:10:59;;;;;;;104.47;87.35;;;;;;;;;;5026018;28;20435;-85
2022/05/19 05:13:25;;;;;;;102.75;86.20;;;;;;;;;;5027057;28;20984;-85
2022/05/19 05:15:51;;;;;;;104.75;88.60;;;;;;;;;;5024389;28;20443;-84
2022/05/19 05:18:18;;;;;;;98.97;84.10;;;;;;;;;;5024446;28;20972;-84
2022/05/19 05:20:44;;;;;;;92.30;78.40;;;;;;;;;;5023880;28;21299;-85
2022/05/19 05:23:10;;;;;;;85.28;71.40;;;;;;;;;;5025928;28;20425;-84
2022/05/19 05:25:38;;;;;;;82.40;72.03;;;;;;;;;;5023882;28;20443;-85
2022/05/19 05:28:04;;;;;;;81.13;70.95;;;;;;;;;;5024393;28;20431;-85
2022/05/19 05:30:31;;;;;;;81.05;68.22;;;;;;;;;;5026333;28;20423;-85
2022/05/19 05:33:02;;;;;;;75.63;62.87;;;;;;;;;;5024304;28;20509;-85
2022/05/19 05:35:28;;;;;;;69.25;59.25;;;;;;;;;;5025601;28;20948;-85
2022/05/19 05:37:55;;;;;;;64.88;52.78;;;;;;;;;;5023294;28;20429;-84
2022/05/19 05:40:21;;;;;;;52.08;42.30;;;;;;;;;;5021875;28;20418;-82
2022/05/19 05:42:49;;;;;;;49.47;44.03;;;;;;;;;;5020851;28;20502;-84
2022/05/19 05:45:15;;;;;;;33.22;28.48;;;;;;;;;;5024815;28;20994;-84
2022/05/19 05:47:42;;;;;;;34.63;30.95;;;;;;;;;;5023694;28;20434;-86
2022/05/19 05:50:08;;;;;;;28.20;25.20;;;;;;;;;;5022801;28;20929;-87
2022/05/19 05:52:34;;;;;;;26.20;23.40;;;;;;;;;;5025231;28;20421;-85
2022/05/19 05:55:01;;;;;;;23.80;21.20;;;;;;;;;;5024145;28;20435;-87
2022/05/19 05:57:27;;;;;;;19.50;17.40;;;;;;;;;;5025390;28;20479;-85
2022/05/19 05:59:55;;;;;;;18.25;16.50;;;;;;;;;;5023886;28;20415;-87
2022/05/19 06:02:21;;;;;;;17.07;15.20;;;;;;;;;;5024278;28;20479;-83
2022/05/19 06:04:47;;;;;;;17.98;15.35;;;;;;;;;;5023674;28;20417;-83
2022/05/19 06:07:13;;;;;;;15.82;14.18;;;;;;;;;;5023040;28;20411;-84
2022/05/19 06:09:40;;;;;;;14.68;12.48;;;;;;;;;;5023137;28;20427;-81
2022/05/19 06:12:07;;;;;;;17.17;12.70;;;;;;;;;;5025928;28;21263;-84
2022/05/19 06:17:12;;;;;;;12.10;10.90;;;;;;;;;;5066760;23;20410;-84
2022/05/19 06:19:38;;;;;;;15.27;11.93;;;;;;;;;;5051631;28;20482;-82
2022/05/19 06:22:05;;;;;;;12.70;10.88;;;;;;;;;;5050920;28;20417;-84
2022/05/19 06:24:32;;;;;;;11.03;9.83;;;;;;;;;;5051348;28;20437;-84
2022/05/19 06:26:58;;;;;;;11.47;10.23;;;;;;;;;;5047883;28;20504;-84
2022/05/19 06:29:25;;;;;;;13.20;10.82;;;;;;;;;;5049038;28;20972;-84
2022/05/19 06:31:51;;;;;;;10.82;9.73;;;;;;;;;;5049918;28;20410;-85
2022/05/19 06:34:19;;;;;;;11.00;9.90;;;;;;;;;;5051647;28;20474;-84
2022/05/19 06:36:45;;;;;;;11.40;10.30;;;;;;;;;;5050406;28;20444;-82
2022/05/19 06:39:11;;;;;;;12.20;10.90;;;;;;;;;;5048287;28;20448;-83
2022/05/19 06:44:21;;;;;;;11.88;10.40;;;;;;;;;;5052495;28;20401;-86
2022/05/19 06:46:48;;;;;;;11.88;9.73;;;;;;;;;;5050375;28;20834;-86
2022/05/19 06:49:14;;;;;;;10.30;8.53;;;;;;;;;;5050514;28;20898;-86
2022/05/19 06:51:41;;;;;;;10.23;8.43;;;;;;;;;;5050455;28;20475;-84
2022/05/19 06:54:08;;;;;;;9.18;8.18;;;;;;;;;;5052945;28;20474;-88
2022/05/19 06:56:35;;;;;;;9.30;8.30;;;;;;;;;;5049305;28;20838;-85
2022/05/19 06:59:02;;;;;;;9.27;8.27;;;;;;;;;;5050295;28;20459;-84
2022/05/19 07:01:28;;;;;;;9.10;7.53;;;;;;;;;;5049582;28;20860;-84
2022/05/19 07:03:54;;;;;;;7.82;7.10;;;;;;;;;;5049599;28;20425;-84
2022/05/19 07:06:21;;;;;;;10.82;7.03;;;;;;;;;;5051990;28;20492;-84
2022/05/19 07:08:48;;;;;;;7.80;7.00;;;;;;;;;;5050049;28;20435;-84
2022/05/19 07:11:25;;;;;;;10.27;7.40;;;;;;;;;;5050967;28;20409;-85
2022/05/19 07:13:52;;;;;;;8.70;6.82;;;;;;;;;;5049604;28;20990;-85
2022/05/19 07:16:18;;;;;;;6.90;6.20;;;;;;;;;;5049552;28;20423;-85
2022/05/19 07:18:45;;;;;;;7.18;6.07;;;;;;;;;;5046893;28;20433;-83
2022/05/19 07:21:10;;;;;;;7.43;6.20;;;;;;;;;;5048079;28;20409;-84
2022/05/19 07:23:37;;;;;;;6.53;5.83;;;;;;;;;;5049924;28;20899;-85
2022/05/19 07:26:04;;;;;;;6.68;5.93;;;;;;;;;;5048763;28;20883;-84
2022/05/19 07:28:30;;;;;;;6.43;5.80;;;;;;;;;;5049162;28;20895;-84
2022/05/19 07:30:57;;;;;;;6.88;5.50;;;;;;;;;;5045481;28;20433;-85
2022/05/19 07:33:23;;;;;;;7.43;5.80;;;;;;;;;;5053915;28;20490;-84
2022/05/19 07:35:50;;;;;;;5.60;5.10;;;;;;;;;;5051196;28;20494;-86
2022/05/19 07:38:17;;;;;;;6.07;5.50;;;;;;;;;;5053712;28;20440;-82
2022/05/19 07:40:43;;;;;;;6.07;5.50;;;;;;;;;;5051754;28;20437;-84
2022/05/19 07:45:55;;;;;;;7.28;5.65;;;;;;;;;;5051924;28;20499;-84
2022/05/19 07:48:21;;;;;;;6.50;5.90;;;;;;;;;;5051979;28;20421;-84
2022/05/19 07:50:47;;;;;;;7.40;5.60;;;;;;;;;;5053131;28;20441;-87
2022/05/19 07:53:13;;;;;;;7.18;5.57;;;;;;;;;;5053444;28;20432;-84
2022/05/19 07:55:39;;;;;;;7.75;6.53;;;;;;;;;;5054369;28;20417;-84
2022/05/19 07:58:06;;;;;;;7.50;6.28;;;;;;;;;;5050653;28;20433;-84
2022/05/19 08:00:33;;;;;;;8.00;6.03;;;;;;;;;;5053629;28;20421;-84
2022/05/19 08:02:59;;;;;;;10.43;6.63;;;;;;;;;;5053419;28;20432;-85
2022/05/19 08:05:26;;;;;;;6.80;6.20;;;;;;;;;;5052341;28;20429;-85
2022/05/19 08:07:52;;;;;;;7.32;6.72;;;;;;;;;;5052634;28;20425;-83
2022/05/19 08:10:21;;;;;;;6.70;6.00;;;;;;;;;;5053393;28;20530;-84
2022/05/19 08:15:37;;;;;;;6.10;5.60;;;;;;;;;;5052325;28;20415;-84
2022/05/19 08:18:06;;;;;;;8.32;6.25;;;;;;;;;;5053922;28;20783;-82
2022/05/19 08:20:32;;;;;;;7.10;6.20;;;;;;;;;;5052847;28;20491;-84
2022/05/19 08:22:58;;;;;;;8.65;6.65;;;;;;;;;;5052017;28;20417;-83
2022/05/19 08:25:26;;;;;;;8.10;6.68;;;;;;;;;;5053908;28;20423;-83
2022/05/19 08:27:53;;;;;;;7.30;6.60;;;;;;;;;;5052365;28;20453;-83
2022/05/19 08:30:19;;;;;;;7.03;6.33;;;;;;;;;;5051784;28;20409;-83
2022/05/19 08:32:45;;;;;;;6.93;6.23;;;;;;;;;;5053338;28;20421;-81
2022/05/19 08:35:13;;;;;;;8.00;7.30;;;;;;;;;;5051703;28;20465;-83
2022/05/19 08:37:39;;;;;;;7.35;6.65;;;;;;;;;;5052440;28;20845;-83
2022/05/19 08:40:06;;;;;;;9.00;7.33;;;;;;;;;;5051689;28;20491;-84
2022/05/19 08:42:34;;;;;;;8.57;7.60;;;;;;;;;;5051532;28;20456;-83
2022/05/19 08:45:03;;;;;;;10.25;7.97;;;;;;;;;;5050957;28;20421;-84
2022/05/19 08:47:31;;;;;;;7.82;7.03;;;;;;;;;;5053568;28;20475;-84
2022/05/19 08:49:58;;;;;;;7.28;6.68;;;;;;;;;;5050301;28;20475;-84
2022/05/19 08:52:27;;;;;;;8.75;7.85;;;;;;;;;;5051684;28;20421;-84
2022/05/19 08:54:54;;;;;;;8.48;7.05;;;;;;;;;;5055050;28;20487;-83
2022/05/19 08:57:23;;;;;;;9.55;8.70;;;;;;;;;;5050592;28;20919;-84
2022/05/19 08:59:54;;;;;;;8.60;7.90;;;;;;;;;;5049474;28;20495;-85
2022/05/19 09:02:24;;;;;;;9.30;8.40;;;;;;;;;;5053184;28;20467;-85
2022/05/19 09:04:57;;;;;;;8.93;8.13;;;;;;;;;;5051204;28;20437;-84
2022/05/19 09:10:21;;;;;;;8.27;7.47;;;;;;;;;;5051886;28;20400;-84
2022/05/19 09:12:49;;;;;;;10.32;9.43;;;;;;;;;;5048843;28;20486;-84
2022/05/19 09:15:15;;;;;;;10.00;9.10;;;;;;;;;;5049757;28;20433;-84
2022/05/19 09:17:43;;;;;;;10.07;9.07;;;;;;;;;;5050600;28;20496;-84
2022/05/19 09:20:11;;;;;;;10.15;9.05;;;;;;;;;;5048750;28;20490;-84
2022/05/19 09:22:37;;;;;;;14.50;10.50;;;;;;;;;;5051979;28;20413;-85
2022/05/19 09:25:06;;;;;;;9.90;8.90;;;;;;;;;;5050210;28;20425;-84
2022/05/19 09:27:35;;;;;;;13.13;8.10;;;;;;;;;;5049251;28;20826;-85
2022/05/19 09:30:01;;;;;;;8.90;7.40;;;;;;;;;;5045632;28;20487;-86
2022/05/19 09:32:29;;;;;;;9.73;8.75;;;;;;;;;;5047135;28;20475;-85
2022/05/19 09:35:02;;;;;;;9.13;8.00;;;;;;;;;;5048097;28;20413;-84
2022/05/19 09:37:35;;;;;;;8.33;7.53;;;;;;;;;;5049887;28;20425;-85
2022/05/19 09:40:08;;;;;;;8.10;7.50;;;;;;;;;;5049806;28;20448;-84
2022/05/19 09:42:37;;;;;;;8.80;7.90;;;;;;;;;;5049206;28;20417;-85
2022/05/19 09:45:04;;;;;;;8.82;8.02;;;;;;;;;;5048059;28;20429;-85
2022/05/19 09:47:32;;;;;;;8.27;7.47;;;;;;;;;;5048179;28;20483;-85
2022/05/19 09:50:03;;;;;;;9.27;8.38;;;;;;;;;;5049391;28;20447;-84
2022/05/19 09:52:32;;;;;;;8.52;7.80;;;;;;;;;;5050481;28;20791;-85
2022/05/19 09:55:00;;;;;;;8.60;7.80;;;;;;;;;;5048429;28;20421;-84
2022/05/19 09:57:28;;;;;;;8.25;7.55;;;;;;;;;;5050342;28;20663;-85
2022/05/19 10:00:00;;;;;;;9.73;7.72;;;;;;;;;;5049372;28;20417;-85
2022/05/19 10:02:30;;;;;;;9.05;8.15;;;;;;;;;;5047805;28;20425;-85
2022/05/19 10:04:58;;;;;;;8.48;7.28;;;;;;;;;;5050199;28;20429;-85
2022/05/19 10:07:27;;;;;;;7.82;7.03;;;;;;;;;;5050553;28;20417;-84
2022/05/19 10:09:54;;;;;;;7.87;7.10;;;;;;;;;;5050055;28;20467;-83
2022/05/19 10:12:24;;;;;;;8.65;7.10;;;;;;;;;;5050700;28;20426;-85
2022/05/19 10:14:57;;;;;;;8.60;7.70;;;;;;;;;;5047012;28;20439;-84
2022/05/19 10:17:32;;;;;;;8.93;8.02;;;;;;;;;;5051413;28;20471;-85
2022/05/19 10:20:04;;;;;;;9.00;8.10;;;;;;;;;;5049047;28;20492;-84
2022/05/19 10:22:37;;;;;;;8.82;8.02;;;;;;;;;;5051833;28;20790;-86
2022/05/19 10:25:21;;;;;;;8.60;7.38;;;;;;;;;;5052509;28;20424;-84
2022/05/19 10:33:32;;;;;;;11.13;9.90;;;;;;;;;;5049009;28;20799;-83
2022/05/19 10:36:07;;;;;;;11.45;10.07;;;;;;;;;;5046826;28;20459;-83
2022/05/19 10:38:40;;;;;;;11.18;9.90;;;;;;;;;;5050538;28;20899;-83
2022/05/19 10:41:10;;;;;;;10.75;9.75;;;;;;;;;;5049379;28;20443;-83
2022/05/19 10:43:45;;;;;;;11.40;10.27;;;;;;;;;;5050030;28;21029;-83
2022/05/19 10:46:14;;;;;;;12.13;10.95;;;;;;;;;;5049349;28;20437;-83
2022/05/19 10:48:54;;;;;;;11.80;10.70;;;;;;;;;;5044535;28;20443;-83
2022/05/19 10:51:26;;;;;;;13.13;10.88;;;;;;;;;;5048432;28;20406;-83
2022/05/19 10:54:03;;;;;;;13.55;10.55;;;;;;;;;;5047791;28;20425;-83
2022/05/19 10:56:38;;;;;;;13.00;10.60;;;;;;;;;;5047808;28;20462;-84
2022/05/19 10:59:12;;;;;;;11.90;10.80;;;;;;;;;;5048856;28;20948;-84
2022/05/19 11:01:44;;;;;;;11.80;10.70;;;;;;;;;;5049267;28;20463;-84
2022/05/19 11:04:23;;;;;;;12.53;11.33;;;;;;;;;;5048568;28;21111;-84
2022/05/19 11:06:58;;;;;;;12.48;11.18;;;;;;;;;;5049606;28;20414;-84
2022/05/19 11:09:28;;;;;;;12.27;10.13;;;;;;;;;;5052163;28;20420;-84
2022/05/19 11:12:02;;;;;;;12.10;10.90;;;;;;;;;;5049648;28;20413;-84
2022/05/19 11:14:35;;;;;;;13.63;12.33;;;;;;;;;;5052093;28;20417;-83
2022/05/19 11:17:05;;;;;;;12.38;11.25;;;;;;;;;;5052146;28;20934;-83
2022/05/19 11:19:36;;;;;;;16.45;13.23;;;;;;;;;;5051096;28;20433;-81
2022/05/19 11:22:05;;;;;;;12.95;11.60;;;;;;;;;;5051865;28;20632;-84
2022/05/19 11:24:32;;;;;;;12.98;11.60;;;;;;;;;;5050283;28;20684;-83
2022/05/19 11:27:04;;;;;;;11.63;10.50;;;;;;;;;;5046215;28;20433;-84
2022/05/19 11:29:33;;;;;;;11.75;10.65;;;;;;;;;;5050948;28;20858;-84
2022/05/19 11:32:03;;;;;;;11.38;10.23;;;;;;;;;;5051172;28;20506;-83
2022/05/19 11:34:33;;;;;;;10.73;9.73;;;;;;;;;;5049759;28;20483;-84
2022/05/19 11:37:04;;;;;;;9.68;8.68;;;;;;;;;;5050293;28;20417;-83
2022/05/19 11:39:34;;;;;;;10.70;9.60;;;;;;;;;;5050492;28;20432;-84
2022/05/19 11:42:05;;;;;;;9.82;8.93;;;;;;;;;;5049575;28;20467;-84
2022/05/19 11:44:34;;;;;;;9.80;9.00;;;;;;;;;;5051737;28;20417;-84
2022/05/19 11:47:01;;;;;;;12.27;11.18;;;;;;;;;;5050242;28;20426;-84
2022/05/19 11:55:14;;;;;;;11.23;10.27;;;;;;;;;;5049127;28;20410;-83
2022/05/19 11:57:42;;;;;;;9.48;8.48;;;;;;;;;;5049309;28;20806;-83
2022/05/19 12:00:10;;;;;;;10.68;9.77;;;;;;;;;;5049495;28;20417;-84
2022/05/19 12:02:39;;;;;;;10.07;9.02;;;;;;;;;;5048178;28;20429;-83
2022/05/19 12:05:10;;;;;;;10.45;9.55;;;;;;;;;;5050457;28;20503;-83
2022/05/19 12:07:49;;;;;;;11.17;8.60;;;;;;;;;;5051468;28;20413;-83
2022/05/19 12:10:17;;;;;;;10.68;9.57;;;;;;;;;;5051937;28;20789;-85
2022/05/19 12:12:46;;;;;;;9.77;8.90;;;;;;;;;;5052456;28;20483;-83
2022/05/19 12:15:17;;;;;;;9.90;8.90;;;;;;;;;;5053398;28;20407;-85
2022/05/19 12:17:45;;;;;;;11.85;9.38;;;;;;;;;;5064440;23;20448;-80
2022/05/19 12:20:31;;;;;;;9.40;8.40;;;;;;;;;;5057384;28;20417;-83
2022/05/19 12:23:10;;;;;;;10.10;8.10;;;;;;;;;;5059564;28;20482;-83
2022/05/19 12:25:38;;;;;;;8.63;7.83;;;;;;;;;;5059576;28;20543;-83
2022/05/19 12:28:05;;;;;;;9.35;8.40;;;;;;;;;;5057870;28;20550;-80
2022/05/19 12:33:22;;;;;;;8.32;7.53;;;;;;;;;;5056512;28;20457;-83
2022/05/19 12:35:49;;;;;;;10.27;8.40;;;;;;;;;;5056082;28;20435;-83
2022/05/19 12:38:29;;;;;;;9.35;7.90;;;;;;;;;;5058617;28;20414;-83
2022/05/19 12:40:56;;;;;;;8.73;7.72;;;;;;;;;;5051894;28;20421;-83
2022/05/19 12:43:29;;;;;;;9.40;8.50;;;;;;;;;;5049783;28;20459;-82
2022/05/19 12:45:57;;;;;;;9.65;8.65;;;;;;;;;;5041818;28;20444;-80
2022/05/19 12:48:26;;;;;;;8.90;8.00;;;;;;;;;;5045332;28;20428;-82
2022/05/19 12:50:53;;;;;;;11.82;9.30;;;;;;;;;;5043075;28;20440;-80
2022/05/19 12:53:38;;;;;;;9.82;8.93;;;;;;;;;;5049539;28;20433;-82
2022/05/19 12:56:06;;;;;;;10.65;8.38;;;;;;;;;;5047545;28;21451;-82
2022/05/19 12:59:01;;;;;;;10.23;9.33;;;;;;;;;;5051080;28;20423;-82
2022/05/19 13:01:29;;;;;;;10.18;9.18;;;;;;;;;;5050016;28;20448;-82
2022/05/19 13:04:03;;;;;;;13.57;9.77;;;;;;;;;;5052288;28;20425;-81
2022/05/19 13:06:30;;;;;;;9.55;8.75;;;;;;;;;;5052224;28;20454;-80
2022/05/19 13:08:56;;;;;;;9.67;8.77;;;;;;;;;;5053454;28;20437;-82
2022/05/19 13:11:27;;;;;;;10.77;9.70;;;;;;;;;;5051750;28;20443;-81
2022/05/19 13:13:55;;;;;;;9.85;8.85;;;;;;;;;;5050624;28;20849;-82
2022/05/19 13:16:25;;;;;;;9.73;8.93;;;;;;;;;;5048688;28;20413;-83
2022/05/19 13:18:52;;;;;;;11.50;9.88;;;;;;;;;;5053482;28;20845;-82
2022/05/19 13:21:22;;;;;;;10.98;8.70;;;;;;;;;;5051827;28;20413;-82
2022/05/19 13:23:48;;;;;;;10.32;9.23;;;;;;;;;;5046969;28;20429;-82
2022/05/19 13:26:18;;;;;;;10.52;9.15;;;;;;;;;;5055858;28;20409;-82
2022/05/19 13:31:49;;;;;;;10.00;8.93;;;;;;;;;;5051460;28;20939;-82
2022/05/19 13:34:16;;;;;;;10.23;8.80;;;;;;;;;;5054639;28;20445;-82
2022/05/19 13:36:42;;;;;;;10.23;9.32;;;;;;;;;;5049043;28;20417;-81
2022/05/19 13:39:10;;;;;;;9.60;8.60;;;;;;;;;;5053511;28;20437;-82
2022/05/19 13:41:41;;;;;;;9.05;8.27;;;;;;;;;;5050039;28;20427;-82
2022/05/19 13:44:10;;;;;;;9.30;8.40;;;;;;;;;;5052246;28;20558;-80
2022/05/19 13:46:37;;;;;;;8.35;7.47;;;;;;;;;;5051953;28;20447;-81
2022/05/19 13:49:06;;;;;;;9.82;8.25;;;;;;;;;;5054680;28;20974;-82
2022/05/19 13:51:34;;;;;;;9.70;8.70;;;;;;;;;;5050283;28;20429;-81
2022/05/19 13:54:01;;;;;;;9.32;8.50;;;;;;;;;;5052551;28;20436;-82
2022/05/19 13:56:36;;;;;;;9.05;8.02;;;;;;;;;;5052706;28;21123;-81
2022/05/19 13:59:03;;;;;;;9.38;8.40;;;;;;;;;;5053119;28;20460;-82
2022/05/19 14:01:32;;;;;;;9.33;8.40;;;;;;;;;;5049454;28;20491;-81
2022/05/19 14:04:00;;;;;;;9.50;8.48;;;;;;;;;;5051495;28;20433;-82
2022/05/19 14:06:29;;;;;;;9.00;8.10;;;;;;;;;;5052644;28;20964;-83
2022/05/19 14:08:56;;;;;;;9.13;8.20;;;;;;;;;;5052278;28;20433;-82
2022/05/19 14:11:22;;;;;;;9.93;8.25;;;;;;;;;;5048989;28;20413;-82
2022/05/19 14:13:52;;;;;;;10.35;7.70;;;;;;;;;;5053036;28;20433;-82
2022/05/19 14:16:18;;;;;;;9.50;8.02;;;;;;;;;;5044539;28;20916;-81
2022/05/19 14:18:48;;;;;;;9.25;8.18;;;;;;;;;;5050392;28;20487;-80
2022/05/19 14:21:17;;;;;;;9.40;8.40;;;;;;;;;;5053080;28;20418;-82
2022/05/19 14:23:47;;;;;;;8.85;7.78;;;;;;;;;;5047783;28;20979;-84
2022/05/19 14:26:14;;;;;;;7.90;7.10;;;;;;;;;;5055398;28;20471;-82
2022/05/19 14:28:42;;;;;;;7.78;7.03;;;;;;;;;;5051975;28;20464;-82
2022/05/19 14:31:09;;;;;;;8.55;6.82;;;;;;;;;;5048040;28;20421;-81
2022/05/19 14:33:37;;;;;;;7.10;6.50;;;;;;;;;;5049843;28;20439;-82
2022/05/19 14:36:10;;;;;;;8.00;7.20;;;;;;;;;;5049470;28;21352;-82
2022/05/19 14:38:37;;;;;;;8.60;7.80;;;;;;;;;;5053039;28;20459;-82
2022/05/19 14:43:51;;;;;;;13.88;12.50;;;;;;;;;;5050971;28;20812;-80
2022/05/19 14:46:18;;;;;;;16.05;14.50;;;;;;;;;;5047774;28;20421;-83
2022/05/19 14:48:48;;;;;;;17.52;15.80;;;;;;;;;;5051274;28;20436;-80
2022/05/19 14:51:17;;;;;;;17.23;15.43;;;;;;;;;;5050560;28;20444;-83
2022/05/19 14:53:45;;;;;;;20.90;18.90;;;;;;;;;;5046948;28;20427;-81
2022/05/19 14:56:14;;;;;;;27.10;24.67;;;;;;;;;;5051302;28;20474;-83
2022/05/19 14:58:46;;;;;;;27.50;24.80;;;;;;;;;;5049060;28;20414;-84
2022/05/19 15:01:12;;;;;;;29.55;26.85;;;;;;;;;;5041771;28;20483;-84